sensor_id;sensor_type;location;lat;lon;timestamp;P1;durP1;ratioP1;P2;durP2;ratioP2
58896;SDS011;44677;52.378;10.400;2023-04-15T00:01:52;5.20;;;4.50;;
58896;SDS011;44677;52.378;10.400;2023-04-15T00:04:18;5.60;;;5.00;;
58896;SDS011;44677;52.378;10.400;2023-04-15T00:06:49;5.90;;;4.90;;
58896;SDS011;44677;52.378;10.400;2023-04-15T00:09:17;6.40;;;4.60;;
58896;SDS011;44677;52.378;10.400;2023-04-15T00:11:43;7.80;;;5.10;;
58896;SDS011;44677;52.378;10.400;2023-04-15T00:14:09;5.30;;;4.80;;
58896;SDS011;44677;52.378;10.400;2023-04-15T00:16:35;5.30;;;4.80;;
58896;SDS011;44677;52.378;10.400;2023-04-15T00:19:01;6.40;;;5.00;;
58896;SDS011;44677;52.378;10.400;2023-04-15T00:21:26;6.50;;;4.70;;
58896;SDS011;44677;52.378;10.400;2023-04-15T00:23:53;7.60;;;5.00;;
58896;SDS011;44677;52.378;10.400;2023-04-15T00:26:18;7.40;;;5.50;;
58896;SDS011;44677;52.378;10.400;2023-04-15T00:28:45;6.30;;;5.30;;
58896;SDS011;44677;52.378;10.400;2023-04-15T00:31:11;6.20;;;5.30;;
58896;SDS011;44677;52.378;10.400;2023-04-15T00:33:36;5.30;;;4.80;;
58896;SDS011;44677;52.378;10.400;2023-04-15T00:36:03;6.70;;;5.00;;
58896;SDS011;44677;52.378;10.400;2023-04-15T00:38:30;7.70;;;5.20;;
58896;SDS011;44677;52.378;10.400;2023-04-15T00:40:55;6.50;;;5.50;;
58896;SDS011;44677;52.378;10.400;2023-04-15T00:43:21;8.30;;;5.60;;
58896;SDS011;44677;52.378;10.400;2023-04-15T00:45:46;6.90;;;5.60;;
58896;SDS011;44677;52.378;10.400;2023-04-15T00:48:12;7.20;;;5.60;;
58896;SDS011;44677;52.378;10.400;2023-04-15T00:50:37;7.50;;;6.20;;
58896;SDS011;44677;52.378;10.400;2023-04-15T00:53:03;7.70;;;6.20;;
58896;SDS011;44677;52.378;10.400;2023-04-15T00:55:30;7.10;;;5.80;;
58896;SDS011;44677;52.378;10.400;2023-04-15T00:57:56;5.90;;;5.30;;
58896;SDS011;44677;52.378;10.400;2023-04-15T01:00:21;8.00;;;6.20;;
58896;SDS011;44677;52.378;10.400;2023-04-15T01:02:47;8.10;;;6.50;;
58896;SDS011;44677;52.378;10.400;2023-04-15T01:05:13;9.40;;;7.30;;
58896;SDS011;44677;52.378;10.400;2023-04-15T01:07:41;9.10;;;6.40;;
58896;SDS011;44677;52.378;10.400;2023-04-15T01:10:07;8.30;;;6.90;;
58896;SDS011;44677;52.378;10.400;2023-04-15T01:12:33;9.20;;;6.60;;
58896;SDS011;44677;52.378;10.400;2023-04-15T01:14:59;9.50;;;7.10;;
58896;SDS011;44677;52.378;10.400;2023-04-15T01:17:26;9.40;;;6.50;;
58896;SDS011;44677;52.378;10.400;2023-04-15T01:19:52;8.30;;;6.40;;
58896;SDS011;44677;52.378;10.400;2023-04-15T01:22:21;10.20;;;7.20;;
58896;SDS011;44677;52.378;10.400;2023-04-15T01:24:55;9.50;;;7.20;;
58896;SDS011;44677;52.378;10.400;2023-04-15T01:27:26;8.60;;;7.10;;
58896;SDS011;44677;52.378;10.400;2023-04-15T01:29:52;9.50;;;7.30;;
58896;SDS011;44677;52.378;10.400;2023-04-15T01:32:18;8.90;;;7.10;;
58896;SDS011;44677;52.378;10.400;2023-04-15T01:34:44;8.40;;;6.60;;
58896;SDS011;44677;52.378;10.400;2023-04-15T01:37:09;9.40;;;7.00;;
58896;SDS011;44677;52.378;10.400;2023-04-15T01:39:34;8.30;;;6.40;;
58896;SDS011;44677;52.378;10.400;2023-04-15T01:42:00;8.60;;;7.00;;
58896;SDS011;44677;52.378;10.400;2023-04-15T01:44:25;11.20;;;7.10;;
58896;SDS011;44677;52.378;10.400;2023-04-15T01:46:51;9.60;;;6.80;;
58896;SDS011;44677;52.378;10.400;2023-04-15T01:49:18;8.70;;;6.80;;
58896;SDS011;44677;52.378;10.400;2023-04-15T01:51:44;8.90;;;7.00;;
58896;SDS011;44677;52.378;10.400;2023-04-15T01:54:11;9.60;;;7.30;;
58896;SDS011;44677;52.378;10.400;2023-04-15T01:56:36;10.30;;;7.60;;
58896;SDS011;44677;52.378;10.400;2023-04-15T01:59:03;10.40;;;7.40;;
58896;SDS011;44677;52.378;10.400;2023-04-15T02:01:28;10.00;;;7.40;;
58896;SDS011;44677;52.378;10.400;2023-04-15T02:03:53;10.70;;;8.00;;
58896;SDS011;44677;52.378;10.400;2023-04-15T02:06:19;9.10;;;7.20;;
58896;SDS011;44677;52.378;10.400;2023-04-15T02:08:46;9.40;;;7.50;;
58896;SDS011;44677;52.378;10.400;2023-04-15T02:11:12;9.50;;;7.30;;
58896;SDS011;44677;52.378;10.400;2023-04-15T02:13:37;11.70;;;7.40;;
58896;SDS011;44677;52.378;10.400;2023-04-15T02:16:03;13.20;;;8.00;;
58896;SDS011;44677;52.378;10.400;2023-04-15T02:18:28;11.60;;;8.00;;
58896;SDS011;44677;52.378;10.400;2023-04-15T02:20:54;10.30;;;8.00;;
58896;SDS011;44677;52.378;10.400;2023-04-15T02:23:21;11.90;;;8.30;;
58896;SDS011;44677;52.378;10.400;2023-04-15T02:25:46;11.20;;;8.50;;
58896;SDS011;44677;52.378;10.400;2023-04-15T02:28:12;13.20;;;9.00;;
58896;SDS011;44677;52.378;10.400;2023-04-15T02:30:37;13.40;;;9.00;;
58896;SDS011;44677;52.378;10.400;2023-04-15T02:33:04;14.50;;;9.90;;
58896;SDS011;44677;52.378;10.400;2023-04-15T02:35:31;14.30;;;9.50;;
58896;SDS011;44677;52.378;10.400;2023-04-15T02:37:57;15.20;;;10.60;;
58896;SDS011;44677;52.378;10.400;2023-04-15T02:40:22;17.40;;;10.10;;
58896;SDS011;44677;52.378;10.400;2023-04-15T02:42:47;13.60;;;9.40;;
58896;SDS011;44677;52.378;10.400;2023-04-15T02:45:14;15.30;;;10.50;;
58896;SDS011;44677;52.378;10.400;2023-04-15T02:47:40;14.30;;;10.10;;
58896;SDS011;44677;52.378;10.400;2023-04-15T02:50:08;14.30;;;9.50;;
58896;SDS011;44677;52.378;10.400;2023-04-15T02:52:37;15.40;;;10.60;;
58896;SDS011;44677;52.378;10.400;2023-04-15T02:55:04;15.60;;;10.20;;
58896;SDS011;44677;52.378;10.400;2023-04-15T02:57:30;15.80;;;10.90;;
58896;SDS011;44677;52.378;10.400;2023-04-15T02:59:57;14.20;;;9.40;;
58896;SDS011;44677;52.378;10.400;2023-04-15T03:02:23;15.90;;;10.70;;
58896;SDS011;44677;52.378;10.400;2023-04-15T03:04:48;18.20;;;11.90;;
58896;SDS011;44677;52.378;10.400;2023-04-15T03:07:14;15.80;;;10.70;;
58896;SDS011;44677;52.378;10.400;2023-04-15T03:09:39;17.80;;;11.40;;
58896;SDS011;44677;52.378;10.400;2023-04-15T03:12:05;16.50;;;11.60;;
58896;SDS011;44677;52.378;10.400;2023-04-15T03:14:31;16.70;;;10.80;;
58896;SDS011;44677;52.378;10.400;2023-04-15T03:16:56;16.10;;;10.50;;
58896;SDS011;44677;52.378;10.400;2023-04-15T03:19:24;14.40;;;9.80;;
58896;SDS011;44677;52.378;10.400;2023-04-15T03:21:49;15.30;;;10.60;;
58896;SDS011;44677;52.378;10.400;2023-04-15T03:24:16;16.40;;;10.00;;
58896;SDS011;44677;52.378;10.400;2023-04-15T03:26:42;13.80;;;10.30;;
58896;SDS011;44677;52.378;10.400;2023-04-15T03:29:10;17.80;;;10.40;;
58896;SDS011;44677;52.378;10.400;2023-04-15T03:31:38;18.10;;;10.90;;
58896;SDS011;44677;52.378;10.400;2023-04-15T03:34:03;17.50;;;11.40;;
58896;SDS011;44677;52.378;10.400;2023-04-15T03:36:29;15.80;;;11.20;;
58896;SDS011;44677;52.378;10.400;2023-04-15T03:38:57;15.20;;;11.30;;
58896;SDS011;44677;52.378;10.400;2023-04-15T03:41:22;18.00;;;11.50;;
58896;SDS011;44677;52.378;10.400;2023-04-15T03:43:48;18.10;;;11.30;;
58896;SDS011;44677;52.378;10.400;2023-04-15T03:46:16;15.60;;;11.50;;
58896;SDS011;44677;52.378;10.400;2023-04-15T03:48:42;15.70;;;11.10;;
58896;SDS011;44677;52.378;10.400;2023-04-15T03:51:08;17.60;;;11.20;;
58896;SDS011;44677;52.378;10.400;2023-04-15T03:53:33;16.70;;;11.50;;
58896;SDS011;44677;52.378;10.400;2023-04-15T03:55:58;17.90;;;12.00;;
58896;SDS011;44677;52.378;10.400;2023-04-15T03:58:24;15.90;;;11.50;;
58896;SDS011;44677;52.378;10.400;2023-04-15T04:00:49;16.70;;;11.50;;
58896;SDS011;44677;52.378;10.400;2023-04-15T04:03:15;18.20;;;11.50;;
58896;SDS011;44677;52.378;10.400;2023-04-15T04:05:41;16.20;;;11.50;;
58896;SDS011;44677;52.378;10.400;2023-04-15T04:08:08;15.90;;;11.20;;
58896;SDS011;44677;52.378;10.400;2023-04-15T04:10:33;18.90;;;12.30;;
58896;SDS011;44677;52.378;10.400;2023-04-15T04:12:59;15.70;;;10.50;;
58896;SDS011;44677;52.378;10.400;2023-04-15T04:15:24;15.50;;;11.40;;
58896;SDS011;44677;52.378;10.400;2023-04-15T04:17:50;17.40;;;11.20;;
58896;SDS011;44677;52.378;10.400;2023-04-15T04:20:15;15.80;;;10.90;;
58896;SDS011;44677;52.378;10.400;2023-04-15T04:22:41;15.70;;;10.50;;
58896;SDS011;44677;52.378;10.400;2023-04-15T04:25:06;15.90;;;10.20;;
58896;SDS011;44677;52.378;10.400;2023-04-15T04:27:33;14.70;;;10.20;;
58896;SDS011;44677;52.378;10.400;2023-04-15T04:29:59;14.50;;;9.60;;
58896;SDS011;44677;52.378;10.400;2023-04-15T04:32:24;14.50;;;10.10;;
58896;SDS011;44677;52.378;10.400;2023-04-15T04:34:50;15.00;;;10.30;;
58896;SDS011;44677;52.378;10.400;2023-04-15T04:37:15;14.60;;;10.00;;
58896;SDS011;44677;52.378;10.400;2023-04-15T04:39:40;14.00;;;9.50;;
58896;SDS011;44677;52.378;10.400;2023-04-15T04:42:06;15.30;;;9.80;;
58896;SDS011;44677;52.378;10.400;2023-04-15T04:44:31;12.50;;;8.60;;
58896;SDS011;44677;52.378;10.400;2023-04-15T04:46:57;14.50;;;9.90;;
58896;SDS011;44677;52.378;10.400;2023-04-15T04:49:22;11.70;;;8.60;;
58896;SDS011;44677;52.378;10.400;2023-04-15T04:51:48;12.90;;;8.70;;
58896;SDS011;44677;52.378;10.400;2023-04-15T04:54:13;12.70;;;9.50;;
58896;SDS011;44677;52.378;10.400;2023-04-15T04:56:38;15.10;;;10.40;;
58896;SDS011;44677;52.378;10.400;2023-04-15T04:59:04;16.20;;;10.90;;
58896;SDS011;44677;52.378;10.400;2023-04-15T05:01:30;15.50;;;10.60;;
58896;SDS011;44677;52.378;10.400;2023-04-15T05:03:55;17.70;;;12.20;;
58896;SDS011;44677;52.378;10.400;2023-04-15T05:06:20;15.50;;;10.80;;
58896;SDS011;44677;52.378;10.400;2023-04-15T05:08:46;17.60;;;11.60;;
58896;SDS011;44677;52.378;10.400;2023-04-15T05:11:12;16.80;;;11.00;;
58896;SDS011;44677;52.378;10.400;2023-04-15T05:13:37;17.50;;;11.40;;
58896;SDS011;44677;52.378;10.400;2023-04-15T05:16:03;15.00;;;10.30;;
58896;SDS011;44677;52.378;10.400;2023-04-15T05:18:29;15.20;;;11.00;;
58896;SDS011;44677;52.378;10.400;2023-04-15T05:20:55;14.30;;;10.60;;
58896;SDS011;44677;52.378;10.400;2023-04-15T05:23:20;15.40;;;11.20;;
58896;SDS011;44677;52.378;10.400;2023-04-15T05:25:46;15.90;;;11.90;;
58896;SDS011;44677;52.378;10.400;2023-04-15T05:28:11;16.60;;;11.70;;
58896;SDS011;44677;52.378;10.400;2023-04-15T05:30:37;16.30;;;11.30;;
58896;SDS011;44677;52.378;10.400;2023-04-15T05:33:02;18.30;;;12.30;;
58896;SDS011;44677;52.378;10.400;2023-04-15T05:35:28;17.30;;;11.10;;
58896;SDS011;44677;52.378;10.400;2023-04-15T05:37:53;17.90;;;11.80;;
58896;SDS011;44677;52.378;10.400;2023-04-15T05:40:19;16.70;;;11.70;;
58896;SDS011;44677;52.378;10.400;2023-04-15T05:42:44;16.20;;;11.30;;
58896;SDS011;44677;52.378;10.400;2023-04-15T05:45:10;17.20;;;11.40;;
58896;SDS011;44677;52.378;10.400;2023-04-15T05:47:36;15.30;;;11.30;;
58896;SDS011;44677;52.378;10.400;2023-04-15T05:50:02;18.40;;;10.90;;
58896;SDS011;44677;52.378;10.400;2023-04-15T05:52:28;15.60;;;11.10;;
58896;SDS011;44677;52.378;10.400;2023-04-15T05:54:54;17.20;;;11.60;;
58896;SDS011;44677;52.378;10.400;2023-04-15T05:57:19;17.00;;;11.50;;
58896;SDS011;44677;52.378;10.400;2023-04-15T05:59:45;15.90;;;11.20;;
58896;SDS011;44677;52.378;10.400;2023-04-15T06:02:10;16.20;;;11.70;;
58896;SDS011;44677;52.378;10.400;2023-04-15T06:04:36;19.30;;;11.90;;
58896;SDS011;44677;52.378;10.400;2023-04-15T06:07:01;16.10;;;11.70;;
58896;SDS011;44677;52.378;10.400;2023-04-15T06:09:27;15.70;;;11.10;;
58896;SDS011;44677;52.378;10.400;2023-04-15T06:11:53;16.70;;;12.10;;
58896;SDS011;44677;52.378;10.400;2023-04-15T06:14:18;15.60;;;10.90;;
58896;SDS011;44677;52.378;10.400;2023-04-15T06:16:44;15.70;;;11.30;;
58896;SDS011;44677;52.378;10.400;2023-04-15T06:19:09;14.00;;;10.50;;
58896;SDS011;44677;52.378;10.400;2023-04-15T06:21:35;15.20;;;10.60;;
58896;SDS011;44677;52.378;10.400;2023-04-15T06:24:00;17.20;;;11.00;;
58896;SDS011;44677;52.378;10.400;2023-04-15T06:26:26;14.30;;;9.90;;
58896;SDS011;44677;52.378;10.400;2023-04-15T06:28:52;15.40;;;10.20;;
58896;SDS011;44677;52.378;10.400;2023-04-15T06:31:18;12.90;;;9.90;;
58896;SDS011;44677;52.378;10.400;2023-04-15T06:33:43;13.90;;;9.90;;
58896;SDS011;44677;52.378;10.400;2023-04-15T06:36:08;14.00;;;9.80;;
58896;SDS011;44677;52.378;10.400;2023-04-15T06:38:34;12.60;;;9.10;;
58896;SDS011;44677;52.378;10.400;2023-04-15T06:40:59;12.90;;;9.80;;
58896;SDS011;44677;52.378;10.400;2023-04-15T06:43:24;13.90;;;9.50;;
58896;SDS011;44677;52.378;10.400;2023-04-15T06:45:50;13.50;;;10.20;;
58896;SDS011;44677;52.378;10.400;2023-04-15T06:48:15;12.40;;;9.10;;
58896;SDS011;44677;52.378;10.400;2023-04-15T06:50:42;12.90;;;9.10;;
58896;SDS011;44677;52.378;10.400;2023-04-15T06:53:07;13.00;;;9.10;;
58896;SDS011;44677;52.378;10.400;2023-04-15T06:55:33;12.90;;;9.20;;
58896;SDS011;44677;52.378;10.400;2023-04-15T06:57:58;14.40;;;9.00;;
58896;SDS011;44677;52.378;10.400;2023-04-15T07:00:23;14.10;;;8.40;;
58896;SDS011;44677;52.378;10.400;2023-04-15T07:02:49;11.40;;;8.40;;
58896;SDS011;44677;52.378;10.400;2023-04-15T07:05:15;11.40;;;8.20;;
58896;SDS011;44677;52.378;10.400;2023-04-15T07:07:41;10.50;;;8.10;;
58896;SDS011;44677;52.378;10.400;2023-04-15T07:10:07;11.00;;;8.20;;
58896;SDS011;44677;52.378;10.400;2023-04-15T07:12:32;11.50;;;8.20;;
58896;SDS011;44677;52.378;10.400;2023-04-15T07:14:59;10.30;;;8.00;;
58896;SDS011;44677;52.378;10.400;2023-04-15T07:17:24;10.30;;;7.80;;
58896;SDS011;44677;52.378;10.400;2023-04-15T07:19:50;10.80;;;7.60;;
58896;SDS011;44677;52.378;10.400;2023-04-15T07:22:16;8.30;;;6.80;;
58896;SDS011;44677;52.378;10.400;2023-04-15T07:24:41;10.00;;;6.70;;
58896;SDS011;44677;52.378;10.400;2023-04-15T07:27:07;8.30;;;6.60;;
58896;SDS011;44677;52.378;10.400;2023-04-15T07:29:32;9.50;;;6.80;;
58896;SDS011;44677;52.378;10.400;2023-04-15T07:31:57;7.50;;;6.20;;
58896;SDS011;44677;52.378;10.400;2023-04-15T07:34:23;12.90;;;10.30;;
58896;SDS011;44677;52.378;10.400;2023-04-15T07:36:48;9.10;;;7.00;;
58896;SDS011;44677;52.378;10.400;2023-04-15T07:39:17;9.20;;;5.00;;
58896;SDS011;44677;52.378;10.400;2023-04-15T07:41:43;5.70;;;4.60;;
58896;SDS011;44677;52.378;10.400;2023-04-15T07:44:08;4.20;;;3.70;;
58896;SDS011;44677;52.378;10.400;2023-04-15T07:46:34;6.00;;;4.90;;
58896;SDS011;44677;52.378;10.400;2023-04-15T07:48:59;5.00;;;4.50;;
58896;SDS011;44677;52.378;10.400;2023-04-15T07:51:24;5.20;;;4.70;;
58896;SDS011;44677;52.378;10.400;2023-04-15T07:53:50;4.90;;;4.50;;
58896;SDS011;44677;52.378;10.400;2023-04-15T07:56:15;5.00;;;4.50;;
58896;SDS011;44677;52.378;10.400;2023-04-15T07:58:41;5.10;;;4.50;;
58896;SDS011;44677;52.378;10.400;2023-04-15T08:01:07;5.20;;;4.50;;
58896;SDS011;44677;52.378;10.400;2023-04-15T08:03:33;4.80;;;4.40;;
58896;SDS011;44677;52.378;10.400;2023-04-15T08:05:58;5.60;;;5.00;;
58896;SDS011;44677;52.378;10.400;2023-04-15T08:08:24;5.20;;;4.70;;
58896;SDS011;44677;52.378;10.400;2023-04-15T08:10:50;6.00;;;5.40;;
58896;SDS011;44677;52.378;10.400;2023-04-15T08:13:16;5.90;;;4.80;;
58896;SDS011;44677;52.378;10.400;2023-04-15T08:15:42;5.40;;;4.90;;
58896;SDS011;44677;52.378;10.400;2023-04-15T08:18:07;5.20;;;4.70;;
58896;SDS011;44677;52.378;10.400;2023-04-15T08:20:33;5.40;;;4.70;;
58896;SDS011;44677;52.378;10.400;2023-04-15T08:22:58;5.00;;;4.50;;
58896;SDS011;44677;52.378;10.400;2023-04-15T08:25:23;5.60;;;5.10;;
58896;SDS011;44677;52.378;10.400;2023-04-15T08:27:49;6.00;;;5.10;;
58896;SDS011;44677;52.378;10.400;2023-04-15T08:30:15;6.80;;;5.40;;
58896;SDS011;44677;52.378;10.400;2023-04-15T08:32:46;6.20;;;5.10;;
58896;SDS011;44677;52.378;10.400;2023-04-15T08:35:12;6.70;;;5.40;;
58896;SDS011;44677;52.378;10.400;2023-04-15T08:37:38;6.30;;;5.50;;
58896;SDS011;44677;52.378;10.400;2023-04-15T08:40:03;7.80;;;5.80;;
58896;SDS011;44677;52.378;10.400;2023-04-15T08:42:30;7.20;;;6.00;;
58896;SDS011;44677;52.378;10.400;2023-04-15T08:44:59;8.80;;;6.40;;
58896;SDS011;44677;52.378;10.400;2023-04-15T08:47:28;7.90;;;6.10;;
58896;SDS011;44677;52.378;10.400;2023-04-15T08:49:56;6.80;;;6.10;;
58896;SDS011;44677;52.378;10.400;2023-04-15T08:52:25;8.50;;;7.20;;
58896;SDS011;44677;52.378;10.400;2023-04-15T08:54:51;8.90;;;6.90;;
58896;SDS011;44677;52.378;10.400;2023-04-15T08:57:20;8.40;;;6.50;;
58896;SDS011;44677;52.378;10.400;2023-04-15T08:59:47;10.00;;;7.90;;
58896;SDS011;44677;52.378;10.400;2023-04-15T09:02:13;10.00;;;7.90;;
58896;SDS011;44677;52.378;10.400;2023-04-15T09:04:39;11.80;;;8.10;;
58896;SDS011;44677;52.378;10.400;2023-04-15T09:07:04;13.00;;;9.10;;
58896;SDS011;44677;52.378;10.400;2023-04-15T09:09:30;12.60;;;9.10;;
58896;SDS011;44677;52.378;10.400;2023-04-15T09:11:55;13.90;;;8.80;;
58896;SDS011;44677;52.378;10.400;2023-04-15T09:14:21;14.40;;;10.10;;
58896;SDS011;44677;52.378;10.400;2023-04-15T09:16:59;14.10;;;10.20;;
58896;SDS011;44677;52.378;10.400;2023-04-15T09:19:26;14.10;;;10.40;;
58896;SDS011;44677;52.378;10.400;2023-04-15T09:21:53;16.30;;;11.20;;
58896;SDS011;44677;52.378;10.400;2023-04-15T09:24:21;14.90;;;11.60;;
58896;SDS011;44677;52.378;10.400;2023-04-15T09:26:46;15.70;;;11.60;;
58896;SDS011;44677;52.378;10.400;2023-04-15T09:29:12;16.00;;;11.50;;
58896;SDS011;44677;52.378;10.400;2023-04-15T09:31:38;17.10;;;12.10;;
58896;SDS011;44677;52.378;10.400;2023-04-15T09:34:04;17.00;;;12.20;;
58896;SDS011;44677;52.378;10.400;2023-04-15T09:36:35;16.20;;;12.20;;
58896;SDS011;44677;52.378;10.400;2023-04-15T09:39:11;20.20;;;13.20;;
58896;SDS011;44677;52.378;10.400;2023-04-15T09:41:37;20.70;;;13.60;;
58896;SDS011;44677;52.378;10.400;2023-04-15T09:44:03;18.80;;;13.40;;
58896;SDS011;44677;52.378;10.400;2023-04-15T09:46:39;18.00;;;13.50;;
58896;SDS011;44677;52.378;10.400;2023-04-15T09:49:09;18.00;;;13.60;;
58896;SDS011;44677;52.378;10.400;2023-04-15T09:51:36;24.60;;;15.10;;
58896;SDS011;44677;52.378;10.400;2023-04-15T09:54:01;20.40;;;14.10;;
58896;SDS011;44677;52.378;10.400;2023-04-15T09:56:33;21.30;;;15.00;;
58896;SDS011;44677;52.378;10.400;2023-04-15T09:59:05;23.30;;;14.50;;
58896;SDS011;44677;52.378;10.400;2023-04-15T10:01:31;21.80;;;14.30;;
58896;SDS011;44677;52.378;10.400;2023-04-15T10:03:56;24.90;;;15.90;;
58896;SDS011;44677;52.378;10.400;2023-04-15T10:06:25;22.20;;;15.60;;
58896;SDS011;44677;52.378;10.400;2023-04-15T10:08:51;22.80;;;15.50;;
58896;SDS011;44677;52.378;10.400;2023-04-15T10:11:17;22.40;;;16.10;;
58896;SDS011;44677;52.378;10.400;2023-04-15T10:13:43;24.80;;;15.80;;
58896;SDS011;44677;52.378;10.400;2023-04-15T10:16:13;23.40;;;16.80;;
58896;SDS011;44677;52.378;10.400;2023-04-15T10:18:41;23.50;;;16.10;;
58896;SDS011;44677;52.378;10.400;2023-04-15T10:21:08;23.30;;;16.00;;
58896;SDS011;44677;52.378;10.400;2023-04-15T10:23:34;24.30;;;16.10;;
58896;SDS011;44677;52.378;10.400;2023-04-15T10:26:01;24.70;;;15.60;;
58896;SDS011;44677;52.378;10.400;2023-04-15T10:28:29;22.70;;;16.20;;
58896;SDS011;44677;52.378;10.400;2023-04-15T10:30:54;23.70;;;16.10;;
58896;SDS011;44677;52.378;10.400;2023-04-15T10:33:21;25.60;;;17.50;;
58896;SDS011;44677;52.378;10.400;2023-04-15T10:35:48;25.10;;;16.90;;
58896;SDS011;44677;52.378;10.400;2023-04-15T10:38:35;23.50;;;15.80;;
58896;SDS011;44677;52.378;10.400;2023-04-15T10:41:11;26.40;;;18.20;;
58896;SDS011;44677;52.378;10.400;2023-04-15T10:43:45;23.70;;;16.90;;
58896;SDS011;44677;52.378;10.400;2023-04-15T10:46:13;27.10;;;17.50;;
58896;SDS011;44677;52.378;10.400;2023-04-15T10:48:47;25.40;;;16.50;;
58896;SDS011;44677;52.378;10.400;2023-04-15T10:51:14;23.60;;;16.50;;
58896;SDS011;44677;52.378;10.400;2023-04-15T10:53:40;23.90;;;16.10;;
58896;SDS011;44677;52.378;10.400;2023-04-15T10:58:41;25.30;;;16.00;;
58896;SDS011;44677;52.378;10.400;2023-04-15T11:01:07;25.00;;;17.60;;
58896;SDS011;44677;52.378;10.400;2023-04-15T11:03:37;26.40;;;17.50;;
58896;SDS011;44677;52.378;10.400;2023-04-15T11:06:03;27.10;;;18.10;;
58896;SDS011;44677;52.378;10.400;2023-04-15T11:09:14;28.30;;;17.80;;
58896;SDS011;44677;52.378;10.400;2023-04-15T11:14:27;29.20;;;17.80;;
58896;SDS011;44677;52.378;10.400;2023-04-15T11:16:52;27.90;;;17.70;;
58896;SDS011;44677;52.378;10.400;2023-04-15T11:19:17;25.60;;;17.70;;
58896;SDS011;44677;52.378;10.400;2023-04-15T11:21:43;29.30;;;19.50;;
58896;SDS011;44677;52.378;10.400;2023-04-15T11:24:08;29.90;;;18.40;;
58896;SDS011;44677;52.378;10.400;2023-04-15T11:26:33;29.50;;;18.80;;
58896;SDS011;44677;52.378;10.400;2023-04-15T11:28:59;29.70;;;18.80;;
58896;SDS011;44677;52.378;10.400;2023-04-15T11:31:26;31.30;;;16.30;;
58896;SDS011;44677;52.378;10.400;2023-04-15T11:36:29;24.00;;;13.50;;
58896;SDS011;44677;52.378;10.400;2023-04-15T11:38:58;32.30;;;16.00;;
58896;SDS011;44677;52.378;10.400;2023-04-15T11:41:23;29.60;;;18.10;;
58896;SDS011;44677;52.378;10.400;2023-04-15T11:43:49;28.90;;;19.40;;
58896;SDS011;44677;52.378;10.400;2023-04-15T11:46:16;28.90;;;19.30;;
58896;SDS011;44677;52.378;10.400;2023-04-15T11:48:42;26.70;;;18.60;;
58896;SDS011;44677;52.378;10.400;2023-04-15T11:51:11;33.40;;;18.20;;
58896;SDS011;44677;52.378;10.400;2023-04-15T11:53:45;27.20;;;19.00;;
58896;SDS011;44677;52.378;10.400;2023-04-15T11:56:24;31.80;;;19.90;;
58896;SDS011;44677;52.378;10.400;2023-04-15T11:58:53;27.80;;;18.50;;
58896;SDS011;44677;52.378;10.400;2023-04-15T12:01:36;28.30;;;18.20;;
58896;SDS011;44677;52.378;10.400;2023-04-15T12:04:10;32.70;;;20.40;;
58896;SDS011;44677;52.378;10.400;2023-04-15T12:06:36;34.90;;;20.10;;
58896;SDS011;44677;52.378;10.400;2023-04-15T12:16:47;33.80;;;19.30;;
58896;SDS011;44677;52.378;10.400;2023-04-15T12:19:15;35.30;;;20.70;;
58896;SDS011;44677;52.378;10.400;2023-04-15T12:21:45;34.70;;;19.80;;
58896;SDS011;44677;52.378;10.400;2023-04-15T12:24:12;32.50;;;19.60;;
58896;SDS011;44677;52.378;10.400;2023-04-15T12:26:47;31.70;;;18.90;;
58896;SDS011;44677;52.378;10.400;2023-04-15T12:29:15;30.60;;;19.20;;
58896;SDS011;44677;52.378;10.400;2023-04-15T12:36:53;34.60;;;21.10;;
58896;SDS011;44677;52.378;10.400;2023-04-15T12:39:23;39.20;;;19.70;;
58896;SDS011;44677;52.378;10.400;2023-04-15T12:41:49;36.70;;;20.20;;
58896;SDS011;44677;52.378;10.400;2023-04-15T12:44:15;39.70;;;21.60;;
58896;SDS011;44677;52.378;10.400;2023-04-15T12:46:41;34.20;;;20.70;;
58896;SDS011;44677;52.378;10.400;2023-04-15T12:49:07;33.10;;;20.60;;
58896;SDS011;44677;52.378;10.400;2023-04-15T12:51:33;37.70;;;21.70;;
58896;SDS011;44677;52.378;10.400;2023-04-15T12:53:58;35.00;;;22.00;;
58896;SDS011;44677;52.378;10.400;2023-04-15T12:56:24;37.70;;;21.90;;
58896;SDS011;44677;52.378;10.400;2023-04-15T12:58:49;31.40;;;20.00;;
58896;SDS011;44677;52.378;10.400;2023-04-15T13:01:15;35.20;;;20.20;;
58896;SDS011;44677;52.378;10.400;2023-04-15T13:03:41;30.30;;;19.60;;
58896;SDS011;44677;52.378;10.400;2023-04-15T13:06:07;33.60;;;18.90;;
58896;SDS011;44677;52.378;10.400;2023-04-15T13:08:32;36.00;;;20.30;;
58896;SDS011;44677;52.378;10.400;2023-04-15T13:10:58;37.60;;;23.00;;
58896;SDS011;44677;52.378;10.400;2023-04-15T13:13:23;56.40;;;32.10;;
58896;SDS011;44677;52.378;10.400;2023-04-15T13:15:49;28.60;;;20.80;;
58896;SDS011;44677;52.378;10.400;2023-04-15T13:18:14;32.50;;;20.00;;
58896;SDS011;44677;52.378;10.400;2023-04-15T13:20:40;29.10;;;19.40;;
58896;SDS011;44677;52.378;10.400;2023-04-15T13:23:06;32.90;;;21.20;;
58896;SDS011;44677;52.378;10.400;2023-04-15T13:25:31;29.70;;;20.20;;
58896;SDS011;44677;52.378;10.400;2023-04-15T13:27:57;30.00;;;20.30;;
58896;SDS011;44677;52.378;10.400;2023-04-15T13:30:22;31.00;;;19.60;;
58896;SDS011;44677;52.378;10.400;2023-04-15T13:32:48;31.50;;;21.50;;
58896;SDS011;44677;52.378;10.400;2023-04-15T13:35:14;31.50;;;20.50;;
58896;SDS011;44677;52.378;10.400;2023-04-15T13:37:40;25.70;;;18.70;;
58896;SDS011;44677;52.378;10.400;2023-04-15T13:40:06;30.50;;;20.40;;
58896;SDS011;44677;52.378;10.400;2023-04-15T13:42:31;30.20;;;19.10;;
58896;SDS011;44677;52.378;10.400;2023-04-15T13:44:57;30.10;;;19.40;;
58896;SDS011;44677;52.378;10.400;2023-04-15T13:47:22;30.30;;;21.70;;
58896;SDS011;44677;52.378;10.400;2023-04-15T13:49:48;30.00;;;19.50;;
58896;SDS011;44677;52.378;10.400;2023-04-15T13:52:13;32.80;;;20.40;;
58896;SDS011;44677;52.378;10.400;2023-04-15T13:54:38;31.60;;;20.40;;
58896;SDS011;44677;52.378;10.400;2023-04-15T13:57:04;19.90;;;12.90;;
58896;SDS011;44677;52.378;10.400;2023-04-15T13:59:31;26.10;;;18.30;;
58896;SDS011;44677;52.378;10.400;2023-04-15T14:01:58;23.90;;;16.90;;
58896;SDS011;44677;52.378;10.400;2023-04-15T14:04:23;19.40;;;13.30;;
58896;SDS011;44677;52.378;10.400;2023-04-15T14:06:48;19.80;;;13.90;;
58896;SDS011;44677;52.378;10.400;2023-04-15T14:09:15;20.50;;;14.10;;
58896;SDS011;44677;52.378;10.400;2023-04-15T14:11:40;21.20;;;16.80;;
58896;SDS011;44677;52.378;10.400;2023-04-15T14:14:05;24.00;;;17.40;;
58896;SDS011;44677;52.378;10.400;2023-04-15T14:16:31;21.90;;;16.90;;
58896;SDS011;44677;52.378;10.400;2023-04-15T14:18:57;24.00;;;17.70;;
58896;SDS011;44677;52.378;10.400;2023-04-15T14:21:23;22.70;;;17.20;;
58896;SDS011;44677;52.378;10.400;2023-04-15T14:23:48;20.30;;;16.20;;
58896;SDS011;44677;52.378;10.400;2023-04-15T14:26:14;22.40;;;17.50;;
58896;SDS011;44677;52.378;10.400;2023-04-15T14:28:39;20.00;;;16.30;;
58896;SDS011;44677;52.378;10.400;2023-04-15T14:31:05;22.90;;;17.90;;
58896;SDS011;44677;52.378;10.400;2023-04-15T14:33:30;24.60;;;17.70;;